createdAt,value
2018-10-16T00:00:58.553Z,0
2018-10-16T00:01:58.579Z,0
2018-10-16T00:02:58.702Z,0
2018-10-16T00:03:59.155Z,0
2018-10-16T00:04:58.924Z,0
2018-10-16T00:05:58.947Z,0
2018-10-16T00:06:58.712Z,0
2018-10-16T00:07:58.740Z,0
2018-10-16T00:08:59.029Z,0
2018-10-16T00:09:59.067Z,0
2018-10-16T00:10:59.085Z,0
2018-10-16T00:11:58.848Z,0
2018-10-16T00:12:58.617Z,0
2018-10-16T00:13:59.436Z,0
2018-10-16T00:14:59.196Z,0
2018-10-16T00:15:59.219Z,0
2018-10-16T00:16:58.723Z,0
2018-10-16T00:17:59.016Z,0
2018-10-16T00:18:59.301Z,0
2018-10-16T00:19:59.062Z,0
2018-10-16T00:20:59.096Z,0
2018-10-16T00:21:59.390Z,0
2018-10-16T00:22:59.408Z,0
2018-10-16T00:23:59.173Z,0
2018-10-16T00:24:59.203Z,0
2018-10-16T00:25:59.226Z,0
2018-10-16T00:26:59.512Z,0
2018-10-16T00:27:59.293Z,0
2018-10-16T00:28:59.317Z,0
2018-10-16T00:29:59.341Z,0
2018-10-16T00:30:59.364Z,0
2018-10-16T00:31:59.390Z,0
2018-10-16T00:32:59.970Z,0
2018-10-16T00:33:59.450Z,0
2018-10-16T00:34:59.218Z,0
2018-10-16T00:35:59.776Z,0
2018-10-16T00:36:59.791Z,0
2018-10-16T00:37:59.562Z,0
2018-10-16T00:38:59.855Z,0
2018-10-16T00:39:59.881Z,0
2018-10-16T00:41:00.176Z,0
2018-10-16T00:41:59.929Z,0
2018-10-16T00:42:59.700Z,0
2018-10-16T00:43:59.725Z,0
2018-10-16T00:44:59.745Z,0
2018-10-16T00:46:00.042Z,0
2018-10-16T00:47:00.072Z,0
2018-10-16T00:48:00.351Z,0
2018-10-16T00:49:00.125Z,0
2018-10-16T00:49:59.884Z,0
2018-10-16T00:50:59.661Z,0
2018-10-16T00:52:00.459Z,0
2018-10-16T00:53:00.265Z,0
2018-10-16T00:54:00.526Z,0
2018-10-16T00:55:01.108Z,0
2018-10-16T00:55:59.794Z,0
2018-10-16T00:57:00.077Z,0
2018-10-16T00:58:00.368Z,0
2018-10-16T00:59:00.136Z,0
2018-10-16T01:00:00.171Z,0
2018-10-16T01:01:00.707Z,0
2018-10-16T01:02:00.734Z,0
2018-10-16T01:03:00.249Z,0
2018-10-16T01:04:00.787Z,0
2018-10-16T01:05:00.822Z,0
2018-10-16T01:06:00.328Z,0
2018-10-16T01:07:00.614Z,0
2018-10-16T01:08:00.640Z,0
2018-10-16T01:09:00.675Z,0
2018-10-16T01:10:00.707Z,0
2018-10-16T01:11:00.722Z,0
2018-10-16T01:12:00.947Z,0
2018-10-16T01:13:00.776Z,0
2018-10-16T01:14:00.809Z,0
2018-10-16T01:15:00.843Z,0
2018-10-16T01:16:01.120Z,0
2018-10-16T01:17:00.642Z,0
2018-10-16T01:18:00.951Z,0
2018-10-16T01:19:00.954Z,0
2018-10-16T01:20:00.972Z,0
2018-10-16T01:21:00.734Z,0
2018-10-16T01:22:01.026Z,0
2018-10-16T01:23:01.314Z,0
2018-10-16T01:24:00.814Z,0
2018-10-16T01:25:00.848Z,0
2018-10-16T01:26:01.140Z,0
2018-10-16T01:27:01.162Z,0
2018-10-16T01:28:01.187Z,0
2018-10-16T01:29:00.951Z,0
2018-10-16T01:30:01.244Z,0
2018-10-16T01:31:00.749Z,0
2018-10-16T01:32:01.302Z,0
2018-10-16T01:33:00.805Z,0
2018-10-16T01:34:01.613Z,0
2018-10-16T01:35:01.120Z,0
2018-10-16T01:36:01.421Z,0
2018-10-16T01:37:01.169Z,0
2018-10-16T01:38:01.476Z,0
2018-10-16T01:39:01.238Z,0
2018-10-16T01:40:01.775Z,0
2018-10-16T01:41:01.551Z,0
2018-10-16T01:42:01.312Z,0
2018-10-16T01:43:01.871Z,0
2018-10-16T01:44:01.620Z,0
2018-10-16T01:45:01.136Z,0
2018-10-16T01:46:01.151Z,0
2018-10-16T01:47:01.451Z,0
2018-10-16T01:48:01.494Z,0
2018-10-16T01:49:01.766Z,0
2018-10-16T01:50:01.529Z,0
2018-10-16T01:51:01.821Z,0
2018-10-16T01:52:01.589Z,0
2018-10-16T01:53:02.136Z,0
2018-10-16T01:54:01.901Z,0
2018-10-16T01:55:02.191Z,0
2018-10-16T01:56:01.956Z,0
2018-10-16T01:57:01.726Z,0
2018-10-16T01:58:01.749Z,0
2018-10-16T01:59:02.308Z,0
2018-10-16T02:00:01.808Z,0
2018-10-16T02:01:02.099Z,0
2018-10-16T02:02:01.860Z,0
2018-10-16T02:03:02.145Z,0
2018-10-16T02:04:01.914Z,0
2018-10-16T02:05:02.461Z,0
2018-10-16T02:06:02.227Z,0
2018-10-16T02:07:02.254Z,0
2018-10-16T02:08:02.277Z,0
2018-10-16T02:09:02.301Z,0
2018-10-16T02:10:02.338Z,0
2018-10-16T02:11:02.359Z,0
2018-10-16T02:12:02.134Z,0
2018-10-16T02:13:02.675Z,0
2018-10-16T02:14:02.187Z,0
2018-10-16T02:15:02.552Z,0
2018-10-16T02:16:02.499Z,0
2018-10-16T02:17:02.001Z,0
2018-10-16T02:18:02.557Z,0
2018-10-16T02:19:02.578Z,0
2018-10-16T02:20:02.356Z,0
2018-10-16T02:21:02.370Z,0
2018-10-16T02:22:02.401Z,0
2018-10-16T02:23:02.959Z,0
2018-10-16T02:24:02.998Z,0
2018-10-16T02:25:02.484Z,0
2018-10-16T02:26:03.088Z,0
2018-10-16T02:27:02.538Z,0
2018-10-16T02:28:02.561Z,0
2018-10-16T02:29:02.855Z,0
2018-10-16T02:30:03.144Z,0
2018-10-16T02:31:03.189Z,0
2018-10-16T02:32:03.203Z,0
2018-10-16T02:33:02.714Z,0
2018-10-16T02:34:03.253Z,0
2018-10-16T02:35:03.299Z,0
2018-10-16T02:36:03.302Z,0
2018-10-16T02:37:03.072Z,0
2018-10-16T02:38:02.845Z,0
2018-10-16T02:39:03.135Z,0
2018-10-16T02:40:03.174Z,0
2018-10-16T02:41:02.925Z,0
2018-10-16T02:42:03.305Z,0
2018-10-16T02:43:02.978Z,0
2018-10-16T02:44:03.264Z,0
2018-10-16T02:45:03.305Z,0
2018-10-16T02:46:03.583Z,0
2018-10-16T02:47:03.347Z,0
2018-10-16T02:48:02.860Z,0
2018-10-16T02:49:03.403Z,0
2018-10-16T02:50:03.700Z,0
2018-10-16T02:51:03.486Z,0
2018-10-16T02:52:03.492Z,0
2018-10-16T02:53:03.772Z,0
2018-10-16T02:54:03.815Z,0
2018-10-16T02:55:03.319Z,0
2018-10-16T02:56:03.855Z,0
2018-10-16T02:57:03.619Z,0
2018-10-16T02:58:03.147Z,0
2018-10-16T02:59:03.944Z,0
2018-10-16T03:00:03.979Z,0
2018-10-16T03:01:03.992Z,0
2018-10-16T03:02:03.497Z,0
2018-10-16T03:03:03.803Z,0
2018-10-16T03:04:04.070Z,0
2018-10-16T03:05:03.324Z,0
2018-10-16T03:06:03.869Z,0
2018-10-16T03:07:03.632Z,0
2018-10-16T03:08:03.660Z,0
2018-10-16T03:09:04.227Z,0
2018-10-16T03:10:04.239Z,0
2018-10-16T03:11:03.752Z,0
2018-10-16T03:12:03.775Z,0
2018-10-16T03:13:03.800Z,0
2018-10-16T03:14:03.824Z,0
2018-10-16T03:15:03.596Z,0
2018-10-16T03:16:03.618Z,0
2018-10-16T03:17:03.905Z,0
2018-10-16T03:18:04.199Z,0
2018-10-16T03:19:03.967Z,0
2018-10-16T03:20:03.999Z,0
2018-10-16T03:21:04.019Z,0
2018-10-16T03:22:04.039Z,0
2018-10-16T03:23:04.064Z,0
2018-10-16T03:24:04.098Z,0
2018-10-16T03:25:04.119Z,0
2018-10-16T03:26:04.411Z,0
2018-10-16T03:27:04.176Z,0
2018-10-16T03:28:04.464Z,0
2018-10-16T03:29:04.504Z,0
2018-10-16T03:30:04.521Z,0
2018-10-16T03:31:04.820Z,0
2018-10-16T03:32:04.844Z,0
2018-10-16T03:33:04.603Z,0
2018-10-16T03:34:04.631Z,0
2018-10-16T03:35:04.936Z,0
2018-10-16T03:36:04.677Z,0
2018-10-16T03:37:04.715Z,0
2018-10-16T03:38:04.742Z,0
2018-10-16T03:39:04.504Z,0
2018-10-16T03:40:04.279Z,0
2018-10-16T03:41:05.075Z,0
2018-10-16T03:42:04.583Z,0
2018-10-16T03:43:04.877Z,0
2018-10-16T03:44:04.902Z,0
2018-10-16T03:45:04.932Z,0
2018-10-16T03:46:05.218Z,0
2018-10-16T03:47:04.980Z,0
2018-10-16T03:48:05.269Z,0
2018-10-16T03:49:05.035Z,0
2018-10-16T03:50:05.063Z,0
2018-10-16T03:51:05.092Z,0
2018-10-16T03:52:04.588Z,0
2018-10-16T03:53:04.886Z,0
2018-10-16T03:54:05.176Z,0
2018-10-16T03:55:05.200Z,0
2018-10-16T03:56:04.962Z,0
2018-10-16T03:57:05.545Z,0
2018-10-16T03:58:05.017Z,0
2018-10-16T03:59:05.302Z,0
2018-10-16T04:00:05.070Z,0
2018-10-16T04:01:05.614Z,0
2018-10-16T04:02:05.649Z,0
2018-10-16T04:03:05.675Z,0
2018-10-16T04:04:05.208Z,0
2018-10-16T04:05:05.466Z,0
2018-10-16T04:06:05.501Z,0
2018-10-16T04:07:05.259Z,0
2018-10-16T04:08:05.296Z,0
2018-10-16T04:09:05.578Z,0
2018-10-16T04:11:05.893Z,0
2018-10-16T04:12:05.140Z,0
2018-10-16T04:13:05.758Z,0
2018-10-16T04:14:06.018Z,16
2018-10-16T04:15:05.758Z,0
2018-10-16T04:16:05.777Z,0
2018-10-16T04:17:05.525Z,0
2018-10-16T04:18:05.784Z,0
2018-10-16T04:19:05.807Z,0
2018-10-16T04:20:05.585Z,0
2018-10-16T04:21:06.127Z,0
2018-10-16T04:22:05.892Z,0
2018-10-16T04:23:05.971Z,0
2018-10-16T04:24:05.435Z,0
2018-10-16T04:25:05.973Z,0
2018-10-16T04:26:05.743Z,0
2018-10-16T04:27:06.034Z,0
2018-10-16T04:28:05.546Z,0
2018-10-16T04:29:06.574Z,0
2018-10-16T04:30:06.127Z,0
2018-10-16T04:31:05.625Z,0
2018-10-16T04:32:06.168Z,0
2018-10-16T04:33:05.941Z,0
2018-10-16T04:34:05.711Z,0
2018-10-16T04:35:05.997Z,0
2018-10-16T04:36:06.029Z,0
2018-10-16T04:37:06.567Z,0
2018-10-16T04:38:06.083Z,0
2018-10-16T04:39:06.617Z,0
2018-10-16T04:40:06.135Z,0
2018-10-16T04:41:06.415Z,0
2018-10-16T04:42:06.436Z,0
2018-10-16T04:43:06.211Z,0
2018-10-16T04:44:06.238Z,0
2018-10-16T04:45:06.301Z,0
2018-10-16T04:46:06.868Z,0
2018-10-16T04:47:06.580Z,0
2018-10-16T04:48:06.344Z,0
2018-10-16T04:49:06.367Z,0
2018-10-16T04:50:06.663Z,0
2018-10-16T04:51:06.688Z,0
2018-10-16T04:52:06.706Z,0
2018-10-16T04:53:06.499Z,0
2018-10-16T04:54:06.524Z,0
2018-10-16T04:55:07.331Z,0
2018-10-16T04:56:06.824Z,0
2018-10-16T04:57:06.593Z,0
2018-10-16T04:58:06.878Z,0
2018-10-16T04:59:06.643Z,0
2018-10-16T05:00:06.676Z,0
2018-10-16T05:01:06.956Z,0
2018-10-16T05:02:06.981Z,0
2018-10-16T05:03:07.266Z,0
2018-10-16T05:04:07.305Z,0
2018-10-16T05:05:07.066Z,0
2018-10-16T05:06:07.351Z,0
2018-10-16T05:07:07.370Z,0
2018-10-16T05:08:07.409Z,0
2018-10-16T05:09:07.167Z,0
2018-10-16T05:10:06.941Z,0
2018-10-16T05:11:06.969Z,0
2018-10-16T05:12:07.271Z,16
2018-10-16T05:13:07.463Z,16
2018-10-16T05:14:07.311Z,16
2018-10-16T05:15:07.330Z,0
2018-10-16T05:16:06.857Z,0
2018-10-16T05:17:07.129Z,0
2018-10-16T05:18:07.413Z,0
2018-10-16T05:19:07.312Z,0
2018-10-16T05:20:07.578Z,0
2018-10-16T05:21:07.240Z,0
2018-10-16T05:22:07.779Z,0
2018-10-16T05:23:07.559Z,0
2018-10-16T05:24:07.065Z,0
2018-10-16T05:25:07.869Z,0
2018-10-16T05:26:07.378Z,0
2018-10-16T05:27:07.696Z,0
2018-10-16T05:28:07.683Z,0
2018-10-16T05:29:07.453Z,0
2018-10-16T05:30:07.480Z,0
2018-10-16T05:31:08.222Z,0
2018-10-16T05:32:08.050Z,0
2018-10-16T05:33:08.092Z,0
2018-10-16T05:34:07.596Z,0
2018-10-16T05:35:07.619Z,0
2018-10-16T05:36:07.908Z,0
2018-10-16T05:37:07.927Z,0
2018-10-16T05:38:07.950Z,0
2018-10-16T05:39:08.458Z,0
2018-10-16T05:40:08.009Z,0
2018-10-16T05:41:08.032Z,0
2018-10-16T05:42:08.318Z,0
2018-10-16T05:43:08.084Z,0
2018-10-16T05:44:07.860Z,0
2018-10-16T05:45:07.881Z,0
2018-10-16T05:46:07.916Z,0
2018-10-16T05:47:07.944Z,0
2018-10-16T05:48:08.230Z,0
2018-10-16T05:49:08.259Z,0
2018-10-16T05:50:08.280Z,0
2018-10-16T05:51:08.308Z,0
2018-10-16T05:52:08.076Z,0
2018-10-16T05:53:08.108Z,4
2018-10-16T05:54:08.175Z,4
2018-10-16T05:55:07.899Z,4
2018-10-16T05:56:07.926Z,4
2018-10-16T05:57:08.725Z,4
2018-10-16T05:58:08.242Z,4
2018-10-16T05:59:08.270Z,0
2018-10-16T06:00:08.563Z,0
2018-10-16T06:01:08.850Z,0
2018-10-16T06:02:08.621Z,0
2018-10-16T06:03:08.379Z,0
2018-10-16T06:04:08.443Z,4
2018-10-16T06:05:08.941Z,4
2018-10-16T06:06:08.200Z,4
2018-10-16T06:07:08.738Z,4
2018-10-16T06:08:08.767Z,4
2018-10-16T06:09:08.541Z,4
2018-10-16T06:10:08.819Z,0
2018-10-16T06:11:08.603Z,0
2018-10-16T06:12:08.752Z,4
2018-10-16T06:13:08.642Z,4
2018-10-16T06:14:08.675Z,4
2018-10-16T06:15:09.223Z,4
2018-10-16T06:16:09.645Z,4
2018-10-16T06:17:08.763Z,4
2018-10-16T06:18:09.042Z,8
2018-10-16T06:19:08.814Z,4
2018-10-16T06:20:08.841Z,4
2018-10-16T06:21:09.112Z,4
2018-10-16T06:22:09.151Z,4
2018-10-16T06:23:09.184Z,4
2018-10-16T06:24:09.205Z,8
2018-10-16T06:25:09.497Z,8
2018-10-16T06:26:09.256Z,4
2018-10-16T06:27:09.543Z,4
2018-10-16T06:28:09.054Z,8
2018-10-16T06:29:09.342Z,8
2018-10-16T06:30:09.839Z,8
2018-10-16T06:31:09.386Z,8
2018-10-16T06:32:09.159Z,8
2018-10-16T06:33:09.552Z,8
2018-10-16T06:34:09.739Z,8
2018-10-16T06:35:09.766Z,8
2018-10-16T06:36:09.544Z,8
2018-10-16T06:37:09.558Z,8
2018-10-16T06:38:09.370Z,8
2018-10-16T06:39:09.863Z,8
2018-10-16T06:40:09.647Z,8
2018-10-16T06:41:09.819Z,8
2018-10-16T06:42:09.185Z,12
2018-10-16T06:43:09.722Z,8
2018-10-16T06:44:09.244Z,8
2018-10-16T06:45:10.032Z,8
2018-10-16T06:46:09.801Z,12
2018-10-16T06:47:10.344Z,12
2018-10-16T06:48:09.557Z,12
2018-10-16T06:49:10.208Z,12
2018-10-16T06:50:09.654Z,8
2018-10-16T06:51:09.966Z,12
2018-10-16T06:52:09.966Z,16
2018-10-16T06:53:09.816Z,12
2018-10-16T06:54:10.022Z,12
2018-10-16T06:55:10.305Z,12
2018-10-16T06:56:09.824Z,12
2018-10-16T06:57:09.845Z,16
2018-10-16T06:58:10.394Z,16
2018-10-16T06:59:10.155Z,16
2018-10-16T07:00:10.294Z,12
2018-10-16T07:01:10.213Z,16
2018-10-16T07:02:09.979Z,16
2018-10-16T07:03:10.266Z,12
2018-10-16T07:04:10.295Z,16
2018-10-16T07:05:10.571Z,16
2018-10-16T07:06:10.096Z,16
2018-10-16T07:07:10.418Z,16
2018-10-16T07:08:10.409Z,16
2018-10-16T07:09:10.686Z,16
2018-10-16T07:10:09.938Z,16
2018-10-16T07:11:10.486Z,16
2018-10-16T07:12:10.510Z,16
2018-10-16T07:13:10.536Z,16
2018-10-16T07:14:10.837Z,16
2018-10-16T07:15:11.417Z,16
2018-10-16T07:16:10.614Z,16
2018-10-16T07:17:10.390Z,20
2018-10-16T07:18:10.937Z,16
2018-10-16T07:19:10.443Z,16
2018-10-16T07:20:10.985Z,20
2018-10-16T07:21:10.933Z,20
2018-10-16T07:22:10.841Z,20
2018-10-16T07:23:10.584Z,20
2018-10-16T07:24:10.318Z,16
2018-10-16T07:25:10.863Z,20
2018-10-16T07:26:10.891Z,20
2018-10-16T07:27:11.177Z,20
2018-10-16T07:28:11.202Z,24
2018-10-16T07:29:11.071Z,20
2018-10-16T07:30:11.308Z,20
2018-10-16T07:31:10.527Z,20
2018-10-16T07:32:10.811Z,24
2018-10-16T07:33:11.080Z,20
2018-10-16T07:34:10.607Z,24
2018-10-16T07:35:11.147Z,20
2018-10-16T07:36:10.927Z,20
2018-10-16T07:37:10.935Z,24
2018-10-16T07:38:11.500Z,24
2018-10-16T07:39:11.029Z,28
2018-10-16T07:40:11.279Z,28
2018-10-16T07:41:11.064Z,28
2018-10-16T07:42:11.586Z,20
2018-10-16T07:43:11.614Z,20
2018-10-16T07:44:11.642Z,24
2018-10-16T07:45:11.680Z,28
2018-10-16T07:46:11.438Z,24
2018-10-16T07:47:11.534Z,24
2018-10-16T07:48:11.746Z,24
2018-10-16T07:49:11.284Z,24
2018-10-16T07:50:11.559Z,24
2018-10-16T07:51:11.588Z,24
2018-10-16T07:52:11.866Z,20
2018-10-16T07:53:11.674Z,20
2018-10-16T07:54:11.653Z,20
2018-10-16T07:55:11.692Z,20
2018-10-16T07:56:11.454Z,24
2018-10-16T07:57:12.143Z,28
2018-10-16T07:58:11.765Z,24
2018-10-16T07:59:12.051Z,24
2018-10-16T08:00:11.560Z,24
2018-10-16T08:01:11.871Z,24
2018-10-16T08:02:11.882Z,20
2018-10-16T08:03:11.919Z,20
2018-10-16T08:04:11.934Z,20
2018-10-16T08:05:11.719Z,24
2018-10-16T08:06:12.008Z,24
2018-10-16T08:07:11.759Z,28
2018-10-16T08:08:11.842Z,32
2018-10-16T08:09:12.062Z,28
2018-10-16T08:10:11.825Z,24
2018-10-16T08:11:12.224Z,24
2018-10-16T08:12:12.395Z,28
2018-10-16T08:13:11.920Z,28
2018-10-16T08:14:12.211Z,24
2018-10-16T08:15:12.228Z,32
2018-10-16T08:16:11.997Z,32
2018-10-16T08:17:12.933Z,32
2018-10-16T08:18:11.799Z,32
2018-10-16T08:19:12.340Z,28
2018-10-16T08:20:12.386Z,24
2018-10-16T08:21:12.440Z,32
2018-10-16T08:22:12.420Z,32
2018-10-16T08:23:12.448Z,32
2018-10-16T08:24:12.478Z,36
2018-10-16T08:25:12.245Z,32
2018-10-16T08:26:12.268Z,36
2018-10-16T08:27:12.045Z,32
2018-10-16T08:28:12.637Z,32
2018-10-16T08:29:12.881Z,36
2018-10-16T08:30:12.606Z,36
2018-10-16T08:31:12.925Z,36
2018-10-16T08:32:12.440Z,32
2018-10-16T08:33:12.463Z,32
2018-10-16T08:34:13.458Z,24
2018-10-16T08:35:12.790Z,32
2018-10-16T08:36:13.450Z,24
2018-10-16T08:37:13.139Z,24
2018-10-16T08:38:13.106Z,24
2018-10-16T08:39:12.889Z,24
2018-10-16T08:40:12.656Z,28
2018-10-16T08:41:12.424Z,32
2018-10-16T08:42:12.969Z,32
2018-10-16T08:43:12.980Z,28
2018-10-16T08:44:13.041Z,32
2018-10-16T08:45:13.607Z,32
2018-10-16T08:46:13.080Z,32
2018-10-16T08:47:13.360Z,32
2018-10-16T08:48:13.125Z,32
2018-10-16T08:49:13.154Z,36
2018-10-16T08:50:12.660Z,36
2018-10-16T08:51:13.476Z,36
2018-10-16T08:52:13.237Z,36
2018-10-16T08:53:13.001Z,36
2018-10-16T08:54:13.284Z,28
2018-10-16T08:55:13.532Z,32
2018-10-16T08:56:13.085Z,36
2018-10-16T08:57:13.120Z,28
2018-10-16T08:58:13.398Z,28
2018-10-16T08:59:12.908Z,32
2018-10-16T09:00:12.946Z,28
2018-10-16T09:01:13.736Z,28
2018-10-16T09:02:13.252Z,32
2018-10-16T09:03:13.282Z,32
2018-10-16T09:04:13.569Z,28
2018-10-16T09:05:13.845Z,28
2018-10-16T09:06:13.872Z,28
2018-10-16T09:07:13.644Z,28
2018-10-16T09:08:13.409Z,28
2018-10-16T09:09:13.235Z,28
2018-10-16T09:10:13.461Z,28
2018-10-16T09:11:14.005Z,24
2018-10-16T09:12:14.035Z,24
2018-10-16T09:13:14.474Z,24
2018-10-16T09:14:14.550Z,24
2018-10-16T09:15:13.597Z,24
2018-10-16T09:16:13.890Z,24
2018-10-16T09:17:13.651Z,24
2018-10-16T09:18:14.204Z,24
2018-10-16T09:19:13.712Z,28
2018-10-16T09:20:13.991Z,20
2018-10-16T09:21:13.766Z,24
2018-10-16T09:22:14.042Z,24
2018-10-16T09:23:14.078Z,24
2018-10-16T09:24:14.105Z,24
2018-10-16T09:25:14.459Z,24
2018-10-16T09:26:13.644Z,24
2018-10-16T09:27:14.449Z,24
2018-10-16T09:28:14.206Z,28
2018-10-16T09:29:14.246Z,28
2018-10-16T09:30:14.523Z,24
2018-10-16T09:31:14.500Z,28
2018-10-16T09:32:14.319Z,24
2018-10-16T09:33:14.343Z,28
2018-10-16T09:34:14.372Z,28
2018-10-16T09:35:14.404Z,24
2018-10-16T09:36:14.171Z,28
2018-10-16T09:37:13.952Z,28
2018-10-16T09:38:14.386Z,28
2018-10-16T09:39:14.254Z,28
2018-10-16T09:40:14.280Z,28
2018-10-16T09:41:14.307Z,28
2018-10-16T09:42:14.857Z,28
2018-10-16T09:43:14.876Z,28
2018-10-16T09:44:14.916Z,28
2018-10-16T09:45:14.419Z,24
2018-10-16T09:46:14.442Z,24
2018-10-16T09:47:14.985Z,24
2018-10-16T09:48:14.751Z,20
2018-10-16T09:49:14.779Z,20
2018-10-16T09:50:14.804Z,20
2018-10-16T09:51:15.096Z,24
2018-10-16T09:52:14.611Z,24
2018-10-16T09:53:14.633Z,28
2018-10-16T09:54:14.656Z,24
2018-10-16T09:55:15.204Z,24
2018-10-16T09:56:14.717Z,28
2018-10-16T09:57:14.746Z,28
2018-10-16T09:58:15.288Z,28
2018-10-16T09:59:15.058Z,24
2018-10-16T10:00:14.828Z,24
2018-10-16T10:01:15.104Z,24
2018-10-16T10:02:15.147Z,20
2018-10-16T10:03:14.908Z,24
2018-10-16T10:04:15.189Z,24
2018-10-16T10:05:15.213Z,20
2018-10-16T10:06:15.241Z,20
2018-10-16T10:07:15.272Z,20
2018-10-16T10:08:15.041Z,20
2018-10-16T10:09:15.326Z,20
2018-10-16T10:10:15.096Z,20
2018-10-16T10:11:15.802Z,20
2018-10-16T10:12:15.401Z,20
2018-10-16T10:13:15.171Z,20
2018-10-16T10:14:15.719Z,20
2018-10-16T10:15:15.227Z,20
2018-10-16T10:16:15.261Z,20
2018-10-16T10:17:15.801Z,24
2018-10-16T10:18:15.565Z,24
2018-10-16T10:19:15.081Z,20
2018-10-16T10:20:15.620Z,24
2018-10-16T10:21:15.897Z,24
2018-10-16T10:22:15.679Z,24
2018-10-16T10:23:16.157Z,28
2018-10-16T10:24:15.735Z,24
2018-10-16T10:25:16.232Z,28
2018-10-16T10:26:16.041Z,28
2018-10-16T10:27:15.811Z,28
2018-10-16T10:28:16.106Z,28
2018-10-16T10:29:15.872Z,28
2018-10-16T10:30:15.855Z,28
2018-10-16T10:31:16.191Z,32
2018-10-16T10:32:15.949Z,28
2018-10-16T10:33:16.227Z,32
2018-10-16T10:34:16.259Z,28
2018-10-16T10:35:16.088Z,32
2018-10-16T10:36:15.800Z,32
2018-10-16T10:37:16.295Z,32
2018-10-16T10:38:16.110Z,28
2018-10-16T10:39:16.167Z,32
2018-10-16T10:40:15.913Z,32
2018-10-16T10:41:15.679Z,32
2018-10-16T10:42:16.372Z,32
2018-10-16T10:43:16.501Z,28
2018-10-16T10:44:15.759Z,32
2018-10-16T10:45:16.564Z,32
2018-10-16T10:46:16.077Z,32
2018-10-16T10:47:16.355Z,32
2018-10-16T10:48:16.130Z,32
2018-10-16T10:49:16.157Z,32
2018-10-16T10:50:17.741Z,32
2018-10-16T10:51:17.721Z,32
2018-10-16T10:52:16.756Z,28
2018-10-16T10:53:16.518Z,28
2018-10-16T10:54:16.547Z,28
2018-10-16T10:55:16.826Z,28
2018-10-16T10:56:16.602Z,28
2018-10-16T10:57:16.758Z,28
2018-10-16T10:58:16.653Z,28
2018-10-16T10:59:16.684Z,24
2018-10-16T11:00:16.450Z,24
2018-10-16T11:01:16.739Z,24
2018-10-16T11:02:16.765Z,24
2018-10-16T11:03:16.782Z,24
2018-10-16T11:04:16.816Z,20
2018-10-16T11:05:17.091Z,24
2018-10-16T11:06:16.916Z,24
2018-10-16T11:07:16.636Z,20
2018-10-16T11:08:17.174Z,24
2018-10-16T11:09:17.654Z,20
2018-10-16T11:10:16.728Z,20
2018-10-16T11:11:16.746Z,24
2018-10-16T11:12:17.328Z,24
2018-10-16T11:13:16.538Z,20
2018-10-16T11:14:16.826Z,20
2018-10-16T11:15:17.767Z,20
2018-10-16T11:16:18.046Z,20
2018-10-16T11:17:17.168Z,20
2018-10-16T11:18:17.187Z,20
2018-10-16T11:19:17.639Z,24
2018-10-16T11:20:17.246Z,20
2018-10-16T11:21:18.041Z,20
2018-10-16T11:22:17.046Z,20
2018-10-16T11:23:17.329Z,20
2018-10-16T11:24:17.351Z,20
2018-10-16T11:25:17.479Z,20
2018-10-16T11:26:17.161Z,16
2018-10-16T11:27:17.788Z,20
2018-10-16T11:28:17.461Z,16
2018-10-16T11:29:17.746Z,20
2018-10-16T11:30:17.807Z,16
2018-10-16T11:31:17.546Z,16
2018-10-16T11:32:17.059Z,16
2018-10-16T11:33:17.885Z,16
2018-10-16T11:34:17.115Z,16
2018-10-16T11:35:17.401Z,16
2018-10-16T11:36:17.430Z,12
2018-10-16T11:37:17.907Z,12
2018-10-16T11:38:17.478Z,16
2018-10-16T11:39:18.344Z,12
2018-10-16T11:40:17.529Z,12
2018-10-16T11:41:18.076Z,12
2018-10-16T11:42:18.100Z,12
2018-10-16T11:43:17.608Z,12
2018-10-16T11:44:18.159Z,12
2018-10-16T11:45:17.822Z,12
2018-10-16T11:46:18.206Z,12
2018-10-16T11:47:18.291Z,12
2018-10-16T11:48:17.756Z,12
2018-10-16T11:49:18.041Z,12
2018-10-16T11:50:17.642Z,12
2018-10-16T11:51:17.580Z,16
2018-10-16T11:52:18.038Z,12
2018-10-16T11:53:17.899Z,16
2018-10-16T11:54:17.920Z,16
2018-10-16T11:55:18.209Z,16
2018-10-16T11:56:18.545Z,16
2018-10-16T11:57:17.739Z,20
2018-10-16T11:58:18.533Z,20
2018-10-16T11:59:18.655Z,20
2018-10-16T12:00:18.076Z,20
2018-10-16T12:01:18.356Z,20
2018-10-16T12:02:19.260Z,20
2018-10-16T12:03:18.402Z,16
2018-10-16T12:04:18.178Z,16
2018-10-16T12:05:18.205Z,16
2018-10-16T12:06:18.608Z,20
2018-10-16T12:07:18.454Z,20
2018-10-16T12:08:18.830Z,20
2018-10-16T12:09:18.308Z,20
2018-10-16T12:10:18.859Z,20
2018-10-16T12:11:18.927Z,20
2018-10-16T12:12:18.910Z,20
2018-10-16T12:13:19.159Z,20
2018-10-16T12:14:19.327Z,20
2018-10-16T12:15:18.223Z,20
2018-10-16T12:16:18.500Z,16
2018-10-16T12:17:18.538Z,16
2018-10-16T12:18:18.553Z,16
2018-10-16T12:19:18.355Z,16
2018-10-16T12:20:18.868Z,16
2018-10-16T12:21:19.232Z,16
2018-10-16T12:22:18.663Z,16
2018-10-16T12:23:18.962Z,16
2018-10-16T12:24:19.267Z,16
2018-10-16T12:25:19.307Z,16
2018-10-16T12:26:18.772Z,16
2018-10-16T12:27:19.708Z,16
2018-10-16T12:28:18.827Z,16
2018-10-16T12:29:18.602Z,16
2018-10-16T12:30:19.140Z,16
2018-10-16T12:31:19.040Z,20
2018-10-16T12:32:19.131Z,16
2018-10-16T12:33:19.311Z,16
2018-10-16T12:34:18.731Z,20
2018-10-16T12:35:19.034Z,16
2018-10-16T12:36:19.549Z,20
2018-10-16T12:37:19.899Z,20
2018-10-16T12:38:19.512Z,20
2018-10-16T12:39:19.456Z,20
2018-10-16T12:40:18.980Z,24
2018-10-16T12:41:19.717Z,24
2018-10-16T12:42:19.692Z,24
2018-10-16T12:43:20.167Z,24
2018-10-16T12:44:19.513Z,24
2018-10-16T12:45:20.202Z,24
2018-10-16T12:46:19.869Z,24
2018-10-16T12:47:19.743Z,28
2018-10-16T12:48:20.164Z,28
2018-10-16T12:49:19.657Z,28
2018-10-16T12:50:20.260Z,28
2018-10-16T12:51:19.698Z,28
2018-10-16T12:52:19.729Z,28
2018-10-16T12:53:19.894Z,24
2018-10-16T12:54:19.629Z,28
2018-10-16T12:55:19.815Z,28
2018-10-16T12:56:20.604Z,28
2018-10-16T12:57:20.475Z,28
2018-10-16T12:58:20.150Z,28
2018-10-16T12:59:19.789Z,28
2018-10-16T13:00:19.788Z,24
2018-10-16T13:01:19.715Z,28
2018-10-16T13:02:20.589Z,28
2018-10-16T13:03:19.972Z,28
2018-10-16T13:04:20.054Z,28
2018-10-16T13:05:20.016Z,28
2018-10-16T13:06:20.109Z,28
2018-10-16T13:07:19.877Z,24
2018-10-16T13:08:20.178Z,28
2018-10-16T13:09:20.404Z,28
2018-10-16T13:10:20.221Z,28
2018-10-16T13:11:20.539Z,28
2018-10-16T13:12:20.276Z,28
2018-10-16T13:13:20.296Z,28
2018-10-16T13:14:20.658Z,28
2018-10-16T13:15:20.363Z,28
2018-10-16T13:16:20.120Z,32
2018-10-16T13:17:20.657Z,32
2018-10-16T13:18:20.428Z,36
2018-10-16T13:19:20.466Z,32
2018-10-16T13:20:20.241Z,36
2018-10-16T13:21:20.253Z,32
2018-10-16T13:22:20.695Z,32
2018-10-16T13:23:21.205Z,32
2018-10-16T13:24:20.849Z,32
2018-10-16T13:25:20.628Z,32
2018-10-16T13:26:20.735Z,32
2018-10-16T13:27:20.924Z,32
2018-10-16T13:28:20.451Z,28
2018-10-16T13:29:20.732Z,32
2018-10-16T13:30:20.750Z,32
2018-10-16T13:31:21.047Z,32
2018-10-16T13:32:20.645Z,32
2018-10-16T13:33:20.320Z,28
2018-10-16T13:34:20.741Z,32
2018-10-16T13:35:20.376Z,28
2018-10-16T13:36:20.657Z,28
2018-10-16T13:37:21.199Z,28
2018-10-16T13:38:20.845Z,28
2018-10-16T13:39:20.994Z,28
2018-10-16T13:40:20.768Z,28
2018-10-16T13:41:20.796Z,24
2018-10-16T13:42:21.153Z,28
2018-10-16T13:43:21.104Z,24
2018-10-16T13:44:21.042Z,28
2018-10-16T13:45:21.154Z,24
2018-10-16T13:46:20.671Z,24
2018-10-16T13:47:21.210Z,24
2018-10-16T13:48:21.239Z,24
2018-10-16T13:49:21.528Z,24
2018-10-16T13:50:21.470Z,12
2018-10-16T13:51:21.574Z,24
2018-10-16T13:52:21.245Z,24
2018-10-16T13:53:21.120Z,28
2018-10-16T13:54:21.398Z,24
2018-10-16T13:55:21.426Z,24
2018-10-16T13:56:21.870Z,24
2018-10-16T13:57:20.970Z,28
2018-10-16T13:58:21.266Z,24
2018-10-16T13:59:21.274Z,24
2018-10-16T14:00:21.595Z,24
2018-10-16T14:01:21.073Z,24
2018-10-16T14:02:21.582Z,28
2018-10-16T14:03:21.906Z,24
2018-10-16T14:04:22.152Z,28
2018-10-16T14:05:21.955Z,28
2018-10-16T14:06:21.984Z,28
2018-10-16T14:07:21.807Z,28
2018-10-16T14:08:21.704Z,24
2018-10-16T14:09:21.802Z,24
2018-10-16T14:10:21.584Z,24
2018-10-16T14:11:22.156Z,24
2018-10-16T14:12:21.371Z,24
2018-10-16T14:13:21.912Z,24
2018-10-16T14:14:21.431Z,20
2018-10-16T14:15:22.236Z,20
2018-10-16T14:16:22.124Z,20
2018-10-16T14:17:21.763Z,20
2018-10-16T14:18:22.049Z,20
2018-10-16T14:19:21.822Z,20
2018-10-16T14:20:22.047Z,20
2018-10-16T14:21:21.868Z,20
2018-10-16T14:22:21.903Z,20
2018-10-16T14:23:22.444Z,20
2018-10-16T14:24:22.472Z,16
2018-10-16T14:25:21.982Z,16
2018-10-16T14:26:22.368Z,16
2018-10-16T14:27:22.293Z,20
2018-10-16T14:28:22.517Z,20
2018-10-16T14:29:21.834Z,20
2018-10-16T14:30:22.384Z,16
2018-10-16T14:31:22.661Z,16